createdAt,value
2022-09-07T00:01:03.139Z,19.48
2022-09-07T00:03:31.068Z,19.48
2022-09-07T00:05:58.403Z,19.48
2022-09-07T00:08:27.726Z,19.47
2022-09-07T00:11:04.301Z,19.47
2022-09-07T00:13:34.324Z,19.47
2022-09-07T00:16:13.608Z,19.44
2022-09-07T00:18:45.235Z,19.45
2022-09-07T00:21:14.269Z,19.45
2022-09-07T00:23:41.778Z,19.43
2022-09-07T00:26:12.047Z,19.44
2022-09-07T00:28:39.588Z,19.42
2022-09-07T00:31:12.048Z,19.41
2022-09-07T00:33:39.569Z,19.42
2022-09-07T00:36:06.755Z,19.41
2022-09-07T00:38:33.630Z,19.40
2022-09-07T00:41:00.549Z,19.41
2022-09-07T00:43:35.101Z,19.40
2022-09-07T00:46:04.035Z,19.40
2022-09-07T00:49:08.437Z,19.39
2022-09-07T00:51:35.291Z,19.38
2022-09-07T00:54:10.490Z,19.35
2022-09-07T00:56:41.235Z,19.35
2022-09-07T00:59:09.349Z,19.35
2022-09-07T01:01:36.750Z,19.34
2022-09-07T01:04:04.427Z,19.34
2022-09-07T01:06:39.751Z,19.33
2022-09-07T01:09:19.954Z,19.32
2022-09-07T01:11:51.344Z,19.31
2022-09-07T01:14:28.385Z,19.31
2022-09-07T01:17:26.300Z,19.31
2022-09-07T01:20:23.498Z,19.31
2022-09-07T01:22:56.516Z,19.30
2022-09-07T01:26:00.271Z,19.31
2022-09-07T01:28:36.956Z,19.30
2022-09-07T01:31:31.307Z,19.30
2022-09-07T01:34:11.641Z,19.28
2022-09-07T01:37:07.566Z,19.28
2022-09-07T01:39:45.294Z,19.27
2022-09-07T01:42:15.022Z,19.25
2022-09-07T01:44:58.145Z,19.25
2022-09-07T01:47:32.947Z,19.26
2022-09-07T01:50:09.515Z,19.25
2022-09-07T01:52:46.698Z,19.23
2022-09-07T01:55:25.758Z,19.24
2022-09-07T01:58:02.356Z,19.23
2022-09-07T02:00:30.651Z,19.22
2022-09-07T02:03:07.910Z,19.22
2022-09-07T02:05:43.413Z,19.22
2022-09-07T02:08:22.775Z,19.21
2022-09-07T02:10:55.576Z,19.21
2022-09-07T02:13:28.480Z,19.21
2022-09-07T02:16:07.129Z,19.20
2022-09-07T02:18:41.703Z,19.20
2022-09-07T02:21:10.770Z,19.19
2022-09-07T02:23:44.766Z,19.19
2022-09-07T02:26:18.129Z,19.18
2022-09-07T02:28:45.317Z,19.17
2022-09-07T02:31:12.475Z,19.18
2022-09-07T02:33:39.661Z,19.18
2022-09-07T02:36:07.372Z,19.16
2022-09-07T02:38:35.721Z,19.13
2022-09-07T02:41:04.678Z,19.14
2022-09-07T02:43:32.688Z,19.14
2022-09-07T02:46:14.636Z,19.14
2022-09-07T02:48:56.889Z,19.12
2022-09-07T02:51:44.978Z,19.11
2022-09-07T02:54:42.745Z,19.10
2022-09-07T02:57:34.726Z,19.10
2022-09-07T03:00:13.827Z,19.09
2022-09-07T03:02:52.762Z,19.08
2022-09-07T03:05:40.770Z,19.08
2022-09-07T03:08:30.054Z,19.08
2022-09-07T03:10:58.659Z,19.08
2022-09-07T03:13:29.574Z,19.07
2022-09-07T03:15:57.572Z,19.07
2022-09-07T03:18:26.084Z,19.07
2022-09-07T03:20:53.263Z,19.05
2022-09-07T03:23:20.181Z,19.07
2022-09-07T03:25:50.242Z,19.05
2022-09-07T03:28:17.824Z,19.05
2022-09-07T03:30:47.670Z,19.05
2022-09-07T03:33:16.214Z,19.04
2022-09-07T03:35:56.817Z,19.05
2022-09-07T03:38:23.713Z,19.05
2022-09-07T03:41:05.172Z,19.04
2022-09-07T03:43:33.095Z,19.03
2022-09-07T03:46:02.104Z,19.02
2022-09-07T03:48:36.178Z,19.03
2022-09-07T03:51:12.988Z,19.03
2022-09-07T03:53:42.722Z,19.02
2022-09-07T03:56:12.728Z,19.03
2022-09-07T03:58:39.982Z,19.02
2022-09-07T04:01:10.157Z,19.02
2022-09-07T04:03:37.601Z,19.02
2022-09-07T04:06:05.808Z,19.02
2022-09-07T04:08:34.834Z,19.02
2022-09-07T04:11:04.937Z,19.01
2022-09-07T04:13:34.124Z,19.00
2022-09-07T04:16:01.088Z,19.00
2022-09-07T04:18:28.041Z,19.00
2022-09-07T04:20:58.980Z,18.99
2022-09-07T04:23:25.922Z,18.99
2022-09-07T04:25:53.096Z,18.98
2022-09-07T04:28:21.373Z,18.98
2022-09-07T04:30:48.522Z,18.99
2022-09-07T04:33:15.788Z,18.99
2022-09-07T04:35:43.887Z,18.98
2022-09-07T04:38:16.308Z,19.01
2022-09-07T04:40:43.543Z,19.02
2022-09-07T04:43:13.311Z,19.05
2022-09-07T04:45:40.541Z,19.07
2022-09-07T04:48:07.784Z,19.04
2022-09-07T04:50:34.893Z,19.00
2022-09-07T04:53:01.844Z,19.00
2022-09-07T04:55:28.829Z,19.01
2022-09-07T04:57:55.809Z,19.02
2022-09-07T05:00:22.842Z,19.04
2022-09-07T05:02:49.824Z,19.04
2022-09-07T05:05:16.873Z,19.04
2022-09-07T05:07:43.833Z,19.05
2022-09-07T05:10:11.075Z,19.07
2022-09-07T05:12:38.246Z,19.07
2022-09-07T05:15:05.643Z,19.07
2022-09-07T05:17:32.560Z,19.11
2022-09-07T05:19:59.709Z,19.11
2022-09-07T05:22:26.776Z,19.11
2022-09-07T05:24:53.650Z,19.16
2022-09-07T05:27:20.579Z,19.20
2022-09-07T05:30:03.953Z,19.21
2022-09-07T05:32:32.445Z,19.23
2022-09-07T05:34:59.365Z,19.23
2022-09-07T05:37:26.246Z,19.27
2022-09-07T05:39:57.335Z,19.28
2022-09-07T05:42:24.401Z,19.28
2022-09-07T05:44:51.377Z,19.27
2022-09-07T05:47:18.501Z,19.31
2022-09-07T05:49:45.553Z,19.32
2022-09-07T05:52:12.810Z,19.32
2022-09-07T05:54:40.498Z,19.33
2022-09-07T05:57:07.866Z,19.35
2022-09-07T05:59:35.117Z,19.36
2022-09-07T06:02:02.244Z,19.36
2022-09-07T06:04:29.369Z,19.40
2022-09-07T06:07:20.513Z,19.37
2022-09-07T06:12:30.613Z,19.39
2022-09-07T06:14:57.590Z,19.42
2022-09-07T06:17:24.536Z,19.45
2022-09-07T06:19:51.624Z,19.44
2022-09-07T06:22:18.680Z,19.43
2022-09-07T06:24:45.903Z,19.44
2022-09-07T06:27:12.975Z,19.44
2022-09-07T06:29:39.899Z,19.44
2022-09-07T06:34:53.998Z,19.46
2022-09-07T06:37:21.013Z,19.44
2022-09-07T06:39:49.794Z,19.45
2022-09-07T06:42:17.110Z,19.44
2022-09-07T06:44:44.044Z,19.39
2022-09-07T06:47:11.149Z,19.31
2022-09-07T06:49:38.135Z,19.28
2022-09-07T06:52:05.462Z,19.34
2022-09-07T06:57:19.440Z,19.38
2022-09-07T06:59:46.361Z,19.39
2022-09-07T07:02:15.271Z,19.38
2022-09-07T07:04:42.294Z,19.38
2022-09-07T07:07:14.407Z,19.37
2022-09-07T07:09:42.255Z,19.35
2022-09-07T07:12:10.142Z,19.34
2022-09-07T07:14:39.761Z,19.34
2022-09-07T07:17:10.610Z,19.34
2022-09-07T07:19:37.699Z,19.33
2022-09-07T07:24:51.541Z,19.30
2022-09-07T07:27:18.602Z,19.29
2022-09-07T07:29:46.121Z,19.28
2022-09-07T07:32:13.301Z,19.28
2022-09-07T07:34:40.359Z,19.28
2022-09-07T07:37:07.483Z,19.28
2022-09-07T07:42:21.869Z,19.27
2022-09-07T07:44:48.876Z,19.26
2022-09-07T07:47:15.843Z,19.26
2022-09-07T07:49:43.040Z,19.28
2022-09-07T07:54:57.203Z,19.26
2022-09-07T07:57:24.126Z,19.27
2022-09-07T07:59:51.197Z,19.27
2022-09-07T08:02:18.252Z,19.27
2022-09-07T08:04:45.443Z,19.27
2022-09-07T08:07:12.830Z,19.26
2022-09-07T08:09:41.373Z,19.27
2022-09-07T08:12:10.163Z,19.27
2022-09-07T08:14:41.898Z,19.25
2022-09-07T08:17:15.312Z,19.25
2022-09-07T08:19:42.505Z,19.25
2022-09-07T08:22:11.228Z,19.24
2022-09-07T08:24:38.378Z,19.25
2022-09-07T08:27:05.639Z,19.25
2022-09-07T08:29:35.096Z,19.26
2022-09-07T08:32:03.886Z,19.25
2022-09-07T08:34:31.347Z,19.26
2022-09-07T08:36:58.581Z,19.25
2022-09-07T08:39:25.651Z,19.27
2022-09-07T08:42:26.842Z,19.27
2022-09-07T08:45:03.374Z,19.26
2022-09-07T08:47:39.400Z,19.26
2022-09-07T08:50:23.611Z,19.27
2022-09-07T08:53:03.104Z,19.29
2022-09-07T08:55:55.986Z,19.31
2022-09-07T08:58:50.640Z,19.31
2022-09-07T09:01:32.810Z,19.27
2022-09-07T09:04:17.218Z,19.27
2022-09-07T09:07:10.142Z,19.28
2022-09-07T09:09:55.387Z,19.28
2022-09-07T09:12:43.408Z,19.28
2022-09-07T09:15:21.942Z,19.27
2022-09-07T09:18:15.270Z,19.27
2022-09-07T09:20:49.500Z,19.27
2022-09-07T09:23:22.377Z,19.28
2022-09-07T09:25:59.120Z,19.28
2022-09-07T09:28:28.903Z,19.31
2022-09-07T09:30:58.823Z,19.34
2022-09-07T09:33:29.008Z,19.38
2022-09-07T09:36:01.294Z,19.41
2022-09-07T09:38:40.327Z,19.45
2022-09-07T09:41:12.564Z,19.48
2022-09-07T09:43:56.728Z,19.48
2022-09-07T09:46:31.712Z,19.49
2022-09-07T09:49:15.384Z,19.49
2022-09-07T09:54:41.391Z,19.52
2022-09-07T09:57:38.147Z,19.55
2022-09-07T10:00:11.023Z,19.58
2022-09-07T10:05:47.212Z,19.63
2022-09-07T10:08:29.352Z,19.65
2022-09-07T10:11:05.403Z,19.68
2022-09-07T10:13:35.564Z,19.70
2022-09-07T10:16:06.268Z,19.71
2022-09-07T10:18:33.361Z,19.71
2022-09-07T10:21:22.487Z,19.71
2022-09-07T10:23:54.905Z,19.71
2022-09-07T10:26:28.751Z,19.70
2022-09-07T10:29:22.925Z,19.73
2022-09-07T10:31:52.897Z,19.77
2022-09-07T10:34:56.738Z,19.78
2022-09-07T10:37:42.573Z,19.80
2022-09-07T10:40:18.563Z,19.82
2022-09-07T10:46:03.787Z,19.84
2022-09-07T10:49:13.098Z,19.86
2022-09-07T10:52:09.953Z,19.82
2022-09-07T10:54:41.499Z,19.84
2022-09-07T10:57:30.137Z,19.83
2022-09-07T11:00:14.050Z,19.80
2022-09-07T11:03:28.308Z,19.78
2022-09-07T11:06:16.612Z,19.84
2022-09-07T11:12:03.823Z,19.93
2022-09-07T11:14:38.674Z,19.94
2022-09-07T11:17:14.454Z,19.92
2022-09-07T11:19:51.108Z,19.94
2022-09-07T11:22:32.366Z,19.96
2022-09-07T11:25:30.875Z,19.97
2022-09-07T11:28:24.918Z,20.02
2022-09-07T11:31:00.260Z,20.05
2022-09-07T11:36:46.461Z,20.03
2022-09-07T11:39:29.762Z,20.04
2022-09-07T11:42:43.527Z,20.03
2022-09-07T11:45:20.412Z,20.05
2022-09-07T11:48:06.149Z,20.06
2022-09-07T11:50:39.728Z,20.01
2022-09-07T11:53:19.503Z,19.93
2022-09-07T11:55:52.278Z,19.91
2022-09-07T11:58:44.150Z,19.86
2022-09-07T12:01:37.051Z,19.85
2022-09-07T12:04:40.111Z,19.87
2022-09-07T12:07:19.334Z,19.89
2022-09-07T12:10:13.374Z,19.88
2022-09-07T12:13:03.640Z,19.89
2022-09-07T12:15:39.615Z,19.92
2022-09-07T12:18:43.361Z,19.93
2022-09-07T12:21:32.603Z,19.92
2022-09-07T12:23:59.842Z,19.98
2022-09-07T12:26:35.939Z,19.96
2022-09-07T12:29:02.759Z,19.94
2022-09-07T12:32:52.425Z,19.94
2022-09-07T12:34:52.620Z,19.92
2022-09-07T12:37:40.714Z,19.93
2022-09-07T12:40:29.538Z,19.94
2022-09-07T12:43:14.940Z,19.95
2022-09-07T12:45:44.810Z,19.94
2022-09-07T12:48:17.553Z,19.91
2022-09-07T12:51:16.779Z,19.93
2022-09-07T12:53:47.098Z,19.93
2022-09-07T12:56:19.954Z,19.95
2022-09-07T12:59:22.202Z,19.95
2022-09-07T13:02:18.133Z,19.94
2022-09-07T13:05:22.528Z,19.94
2022-09-07T13:08:15.248Z,19.94
2022-09-07T13:10:43.657Z,19.95
2022-09-07T13:14:01.225Z,19.89
2022-09-07T13:16:06.532Z,19.86
2022-09-07T13:18:36.335Z,19.88
2022-09-07T13:21:09.255Z,19.91
2022-09-07T13:23:38.268Z,19.90
2022-09-07T13:26:09.846Z,19.88
2022-09-07T13:28:40.341Z,19.85
2022-09-07T13:31:33.748Z,19.88
2022-09-07T13:34:01.389Z,19.87
2022-09-07T13:36:31.193Z,19.88
2022-09-07T13:38:59.059Z,19.87
2022-09-07T13:41:57.861Z,19.89
2022-09-07T13:44:31.066Z,19.89
2022-09-07T13:47:52.235Z,19.89
2022-09-07T13:50:39.999Z,19.89
2022-09-07T13:53:15.988Z,19.90
2022-09-07T13:55:56.307Z,19.91
2022-09-07T13:58:34.198Z,19.93
2022-09-07T14:01:05.361Z,19.95
2022-09-07T14:03:44.184Z,19.99
2022-09-07T14:06:23.436Z,20.00
2022-09-07T14:08:56.116Z,20.00
2022-09-07T14:11:30.815Z,19.99
2022-09-07T14:14:08.907Z,20.00
2022-09-07T14:16:36.371Z,20.01
2022-09-07T14:19:10.954Z,19.98
2022-09-07T14:21:38.474Z,19.95
2022-09-07T14:24:20.351Z,19.93
2022-09-07T14:26:51.149Z,19.95
2022-09-07T14:29:30.419Z,19.95
2022-09-07T14:32:02.803Z,19.92
2022-09-07T14:34:36.557Z,19.88
2022-09-07T14:37:12.364Z,19.87
2022-09-07T14:39:41.817Z,19.88
2022-09-07T14:42:12.655Z,19.88
2022-09-07T14:44:45.563Z,19.88
2022-09-07T14:47:26.051Z,19.89
2022-09-07T14:49:55.982Z,19.91
2022-09-07T14:52:31.311Z,19.90
2022-09-07T14:54:58.699Z,19.89
2022-09-07T14:57:32.457Z,19.88
2022-09-07T15:00:30.213Z,19.89
2022-09-07T15:02:57.256Z,19.87
2022-09-07T15:05:30.193Z,19.88
2022-09-07T15:08:02.060Z,19.88
2022-09-07T15:10:41.656Z,19.87
2022-09-07T15:13:29.265Z,19.87
2022-09-07T15:15:59.149Z,19.87
2022-09-07T15:18:44.542Z,19.86
2022-09-07T15:21:11.675Z,19.85
2022-09-07T15:23:39.872Z,19.84
2022-09-07T15:27:02.114Z,19.84
2022-09-07T15:29:13.179Z,19.84
2022-09-07T15:31:43.575Z,19.83
2022-09-07T15:34:19.119Z,19.83
2022-09-07T15:36:53.656Z,19.82
2022-09-07T15:39:25.035Z,19.83
2022-09-07T15:41:52.517Z,19.82
2022-09-07T15:44:24.908Z,19.82
2022-09-07T15:49:47.370Z,19.78
2022-09-07T15:52:17.244Z,19.69
2022-09-07T15:54:44.346Z,19.67
2022-09-07T15:59:58.998Z,19.66
2022-09-07T16:05:14.081Z,19.62
2022-09-07T16:10:31.199Z,19.56
2022-09-07T16:13:01.836Z,19.57
2022-09-07T16:15:30.859Z,19.63
2022-09-07T16:17:58.017Z,19.66
2022-09-07T16:20:24.952Z,19.70
2022-09-07T16:25:40.024Z,19.71
2022-09-07T16:28:07.671Z,19.74
2022-09-07T16:30:34.829Z,19.74
2022-09-07T16:33:01.848Z,19.77
2022-09-07T16:35:28.973Z,19.77
2022-09-07T16:40:44.050Z,19.78
2022-09-07T16:43:11.009Z,19.79
2022-09-07T16:48:25.266Z,19.82
2022-09-07T16:51:00.614Z,19.81
2022-09-07T16:53:34.758Z,19.83
2022-09-07T16:56:06.140Z,19.81
2022-09-07T16:58:35.721Z,19.79
2022-09-07T17:01:05.958Z,19.76
2022-09-07T17:03:33.592Z,19.79
2022-09-07T17:06:01.754Z,19.77
2022-09-07T17:08:28.871Z,19.79
2022-09-07T17:11:05.240Z,19.77
2022-09-07T17:13:33.827Z,19.78
2022-09-07T17:16:17.471Z,19.79
2022-09-07T17:21:33.596Z,19.78
2022-09-07T17:24:04.291Z,19.80
2022-09-07T17:26:32.373Z,19.80
2022-09-07T17:29:00.483Z,19.81
2022-09-07T17:34:20.493Z,19.81
2022-09-07T17:36:48.550Z,19.81
2022-09-07T17:39:18.175Z,19.81
2022-09-07T17:41:54.132Z,19.83
2022-09-07T17:44:23.786Z,19.85
2022-09-07T17:46:51.397Z,19.84
2022-09-07T17:49:20.882Z,19.85
2022-09-07T17:51:48.286Z,19.85
2022-09-07T17:54:17.849Z,19.85
2022-09-07T17:56:48.240Z,19.85
2022-09-07T18:02:02.552Z,19.86
2022-09-07T18:04:32.166Z,19.85
2022-09-07T18:06:59.370Z,19.85
2022-09-07T18:09:27.716Z,19.85
2022-09-07T18:11:56.107Z,19.86
2022-09-07T18:14:24.980Z,19.85
2022-09-07T18:16:58.782Z,19.85
2022-09-07T18:19:29.464Z,19.86
2022-09-07T18:21:57.181Z,19.87
2022-09-07T18:24:26.146Z,19.88
2022-09-07T18:26:55.503Z,19.84
2022-09-07T18:29:29.223Z,19.83
2022-09-07T18:31:59.329Z,19.86
2022-09-07T18:34:32.208Z,19.86
2022-09-07T18:37:02.154Z,19.86
2022-09-07T18:39:31.657Z,19.87
2022-09-07T18:41:59.085Z,19.90
2022-09-07T18:47:22.274Z,19.90
2022-09-07T18:49:55.206Z,19.89
2022-09-07T18:55:13.167Z,19.90
2022-09-07T18:57:41.733Z,19.89
2022-09-07T19:00:12.137Z,19.88
2022-09-07T19:02:39.856Z,19.89
2022-09-07T19:07:57.958Z,19.93
2022-09-07T19:10:27.592Z,19.93
2022-09-07T19:12:58.496Z,19.93
2022-09-07T19:15:27.440Z,19.93
2022-09-07T19:17:55.095Z,19.93
2022-09-07T19:20:22.536Z,19.92
2022-09-07T19:22:50.007Z,19.92
2022-09-07T19:25:21.036Z,19.93
2022-09-07T19:27:50.315Z,19.94
2022-09-07T19:30:18.219Z,19.96
2022-09-07T19:32:48.569Z,19.97
2022-09-07T19:35:20.069Z,20.00
2022-09-07T19:37:49.806Z,20.01
2022-09-07T19:40:19.222Z,20.00
2022-09-07T19:42:47.648Z,20.00
2022-09-07T19:45:18.898Z,20.02
2022-09-07T19:47:48.492Z,20.03
2022-09-07T19:50:16.251Z,20.03
2022-09-07T19:52:51.963Z,20.03
2022-09-07T19:55:21.538Z,20.03
2022-09-07T19:57:51.077Z,20.07
2022-09-07T20:00:20.750Z,20.09
2022-09-07T20:02:52.813Z,20.09
2022-09-07T20:05:24.262Z,20.11
2022-09-07T20:07:51.909Z,20.13
2022-09-07T20:10:19.653Z,20.15
2022-09-07T20:12:48.699Z,20.17
2022-09-07T20:15:23.304Z,20.16
2022-09-07T20:17:50.778Z,20.18
2022-09-07T20:20:19.660Z,20.19
2022-09-07T20:22:47.351Z,20.19
2022-09-07T20:25:14.977Z,20.17
2022-09-07T20:27:42.622Z,20.16
2022-09-07T20:30:11.423Z,20.16
2022-09-07T20:32:39.082Z,20.17
2022-09-07T20:35:08.517Z,20.16
2022-09-07T20:37:36.293Z,20.18
2022-09-07T20:40:04.730Z,20.19
2022-09-07T20:42:32.715Z,20.19
2022-09-07T20:45:01.014Z,20.16
2022-09-07T20:47:30.685Z,20.16
2022-09-07T20:50:00.506Z,20.17
2022-09-07T20:52:27.786Z,20.17
2022-09-07T20:54:55.299Z,20.16
2022-09-07T20:57:23.827Z,20.14
2022-09-07T20:59:53.221Z,20.14
2022-09-07T21:02:21.063Z,20.15
2022-09-07T21:04:49.044Z,20.16
2022-09-07T21:07:22.789Z,20.16
2022-09-07T21:09:50.963Z,20.14
2022-09-07T21:12:18.334Z,20.11
2022-09-07T21:14:46.559Z,20.11
2022-09-07T21:17:14.193Z,20.15
2022-09-07T21:19:41.716Z,20.17
2022-09-07T21:22:15.207Z,20.19
2022-09-07T21:24:42.644Z,20.16
2022-09-07T21:27:10.156Z,20.21
2022-09-07T21:29:39.460Z,20.20
2022-09-07T21:32:07.167Z,20.16
2022-09-07T21:34:35.902Z,20.13
2022-09-07T21:37:03.521Z,20.12
2022-09-07T21:39:32.112Z,20.12
2022-09-07T21:41:59.663Z,20.13
2022-09-07T21:44:26.985Z,20.13
2022-09-07T21:46:55.590Z,20.12
2022-09-07T21:49:22.973Z,20.13
2022-09-07T21:51:51.072Z,20.10
2022-09-07T21:54:20.707Z,20.12
2022-09-07T21:56:51.057Z,20.13
2022-09-07T21:59:18.950Z,20.11
2022-09-07T22:01:46.695Z,20.08
2022-09-07T22:04:15.500Z,20.06
2022-09-07T22:06:44.438Z,20.04
2022-09-07T22:09:14.300Z,20.01
2022-09-07T22:11:45.888Z,20.00
2022-09-07T22:14:18.257Z,19.98
2022-09-07T22:16:48.566Z,19.95
2022-09-07T22:19:16.016Z,19.92
2022-09-07T22:21:43.561Z,19.92
2022-09-07T22:24:15.490Z,19.89
2022-09-07T22:26:42.812Z,19.89
2022-09-07T22:29:14.976Z,19.87
2022-09-07T22:31:42.826Z,19.84
2022-09-07T22:34:11.290Z,19.82
2022-09-07T22:36:47.740Z,19.82
2022-09-07T22:39:18.213Z,19.81
2022-09-07T22:41:47.374Z,19.81
2022-09-07T22:44:17.336Z,19.80
2022-09-07T22:46:46.342Z,19.80
2022-09-07T22:49:16.306Z,19.78
2022-09-07T22:51:44.099Z,19.76
2022-09-07T22:54:11.321Z,19.77
2022-09-07T22:56:39.481Z,19.75
2022-09-07T22:59:08.455Z,19.75
2022-09-07T23:01:36.551Z,19.75
2022-09-07T23:04:04.620Z,19.72
2022-09-07T23:06:37.508Z,19.71
2022-09-07T23:09:16.821Z,19.73
2022-09-07T23:11:45.135Z,19.70
2022-09-07T23:14:22.334Z,19.70
2022-09-07T23:16:49.942Z,19.69
2022-09-07T23:19:19.890Z,19.69
2022-09-07T23:21:47.459Z,19.67
2022-09-07T23:24:16.570Z,19.67
2022-09-07T23:26:44.101Z,19.68
2022-09-07T23:29:13.078Z,19.66
2022-09-07T23:31:40.933Z,19.66
2022-09-07T23:34:08.602Z,19.66
2022-09-07T23:36:36.996Z,19.63
2022-09-07T23:39:04.911Z,19.65
2022-09-07T23:41:32.102Z,19.62
2022-09-07T23:43:59.436Z,19.62
2022-09-07T23:46:26.599Z,19.59
2022-09-07T23:48:53.709Z,19.61
2022-09-07T23:51:24.133Z,19.60
2022-09-07T23:53:52.424Z,19.59
2022-09-07T23:56:20.128Z,19.59
2022-09-07T23:58:47.123Z,19.57
